Time;durP1;ratioP1;P1;durP2;ratioP2;P2;SDS_P1;SDS_P2;PMS_P1;PMS_P2;Temp;Humidity;BMP_temperature;BMP_pressure;BME280_temperature;BME280_humidity;BME280_pressure;Samples;Min_cycle;Max_cycle;Signal;HPM_P1;HPM_P2
2022/06/27 00:02:00;;;;;;;17.05;11.85;;;;;;;;;;5052246;28;20041;-68
2022/06/27 00:04:26;;;;;;;18.08;11.43;;;;;;;;;;5052287;28;20041;-69
2022/06/27 00:06:52;;;;;;;20.75;13.30;;;;;;;;;;5052197;28;20041;-68
2022/06/27 00:09:17;;;;;;;14.55;11.60;;;;;;;;;;5052502;28;20528;-68
2022/06/27 00:11:43;;;;;;;18.67;12.68;;;;;;;;;;5052377;28;20041;-68
2022/06/27 00:14:09;;;;;;;18.08;12.05;;;;;;;;;;5017647;28;20279;-68
2022/06/27 00:16:35;;;;;;;23.75;12.15;;;;;;;;;;5052152;28;20547;-69
2022/06/27 00:19:01;;;;;;;21.90;11.45;;;;;;;;;;5033940;28;20055;-68
2022/06/27 00:21:27;;;;;;;19.35;11.48;;;;;;;;;;5051959;28;20049;-69
2022/06/27 00:23:53;;;;;;;19.95;10.90;;;;;;;;;;5051897;28;20416;-68
2022/06/27 00:26:18;;;;;;;18.13;12.23;;;;;;;;;;5052025;28;20057;-69
2022/06/27 00:28:45;;;;;;;17.77;11.65;;;;;;;;;;5034209;28;20087;-69
2022/06/27 00:31:10;;;;;;;19.95;12.80;;;;;;;;;;5051738;28;20072;-68
2022/06/27 00:33:36;;;;;;;18.73;12.02;;;;;;;;;;5041748;28;20076;-69
2022/06/27 00:36:03;;;;;;;22.83;12.63;;;;;;;;;;5013868;28;20046;-69
2022/06/27 00:38:29;;;;;;;14.90;11.63;;;;;;;;;;5031784;28;20096;-69
2022/06/27 00:40:55;;;;;;;16.95;12.13;;;;;;;;;;5031531;28;20044;-69
2022/06/27 00:43:21;;;;;;;23.13;11.98;;;;;;;;;;5014129;28;20464;-68
2022/06/27 00:45:47;;;;;;;24.00;11.80;;;;;;;;;;5013900;28;20577;-68
2022/06/27 00:48:13;;;;;;;22.02;11.25;;;;;;;;;;5013745;28;20048;-69
2022/06/27 00:50:39;;;;;;;19.40;10.70;;;;;;;;;;5031322;28;20529;-68
2022/06/27 00:53:06;;;;;;;14.82;10.52;;;;;;;;;;5031483;28;20045;-68
2022/06/27 00:55:32;;;;;;;22.55;11.75;;;;;;;;;;5031949;28;20425;-68
2022/06/27 00:57:58;;;;;;;17.98;11.13;;;;;;;;;;4998102;28;20056;-69
2022/06/27 01:00:24;;;;;;;29.38;11.05;;;;;;;;;;5013028;28;20514;-67
2022/06/27 01:02:49;;;;;;;17.77;11.68;;;;;;;;;;5031442;28;20067;-69
2022/06/27 01:05:15;;;;;;;26.60;12.43;;;;;;;;;;5013374;28;20085;-69
2022/06/27 01:07:41;;;;;;;20.98;11.57;;;;;;;;;;5013673;28;20041;-69
2022/06/27 01:10:07;;;;;;;23.85;11.82;;;;;;;;;;5030872;28;20127;-69
2022/06/27 01:12:33;;;;;;;29.08;12.52;;;;;;;;;;5031640;28;20502;-68
2022/06/27 01:15:00;;;;;;;22.45;12.40;;;;;;;;;;5013423;28;20053;-69
2022/06/27 01:17:26;;;;;;;21.25;11.88;;;;;;;;;;5013633;28;20073;-69
2022/06/27 01:19:52;;;;;;;30.42;12.32;;;;;;;;;;4997106;28;20057;-68
2022/06/27 01:22:18;;;;;;;32.58;13.15;;;;;;;;;;5030915;28;20041;-69
2022/06/27 01:24:43;;;;;;;24.88;12.43;;;;;;;;;;5030906;28;20041;-69
2022/06/27 01:27:10;;;;;;;25.73;12.73;;;;;;;;;;5029423;28;20414;-69
2022/06/27 01:29:36;;;;;;;24.00;12.77;;;;;;;;;;5012983;28;20053;-70
2022/06/27 01:32:03;;;;;;;19.52;12.02;;;;;;;;;;5029433;28;20131;-69
2022/06/27 01:34:31;;;;;;;24.55;12.13;;;;;;;;;;5012995;28;20053;-69
2022/06/27 01:36:58;;;;;;;21.13;12.18;;;;;;;;;;4996812;28;20563;-70
2022/06/27 01:39:24;;;;;;;21.85;11.05;;;;;;;;;;4996617;28;20041;-69
2022/06/27 01:41:53;;;;;;;15.80;10.57;;;;;;;;;;5012838;28;20052;-69
2022/06/27 01:44:22;;;;;;;20.35;11.48;;;;;;;;;;5012874;28;20076;-69
2022/06/27 01:46:49;;;;;;;21.80;11.23;;;;;;;;;;5012921;28;20137;-69
2022/06/27 01:49:16;;;;;;;17.75;11.02;;;;;;;;;;5029939;28;20084;-69
2022/06/27 01:51:42;;;;;;;17.15;11.13;;;;;;;;;;4996521;28;20037;-69
2022/06/27 01:54:09;;;;;;;19.33;11.75;;;;;;;;;;5012584;28;20490;-69
2022/06/27 01:56:35;;;;;;;26.38;11.93;;;;;;;;;;5029027;28;20206;-68
2022/06/27 01:59:01;;;;;;;23.83;11.30;;;;;;;;;;5012577;28;20064;-68
2022/06/27 02:01:27;;;;;;;26.55;11.60;;;;;;;;;;5029000;28;20041;-69
2022/06/27 02:03:54;;;;;;;23.75;12.65;;;;;;;;;;5012457;28;20045;-68
2022/06/27 02:06:20;;;;;;;29.23;12.32;;;;;;;;;;5029891;28;20099;-68
2022/06/27 02:08:46;;;;;;;25.23;12.18;;;;;;;;;;5029917;28;20053;-68
2022/06/27 02:11:15;;;;;;;31.77;11.40;;;;;;;;;;4996100;28;20118;-69
2022/06/27 02:13:42;;;;;;;32.33;12.32;;;;;;;;;;4996062;28;20084;-68
2022/06/27 02:16:27;;;;;;;25.60;12.00;;;;;;;;;;5001582;28;20080;-69
2022/06/27 02:18:54;;;;;;;29.65;12.35;;;;;;;;;;4995951;28;20076;-69
2022/06/27 02:21:20;;;;;;;34.58;11.98;;;;;;;;;;5029633;28;20076;-71
2022/06/27 02:23:46;;;;;;;20.38;12.10;;;;;;;;;;5012292;28;20048;-69
2022/06/27 02:26:13;;;;;;;26.77;12.05;;;;;;;;;;5011996;28;20041;-68
2022/06/27 02:28:39;;;;;;;28.30;12.23;;;;;;;;;;5029674;28;20037;-70
2022/06/27 02:31:05;;;;;;;27.02;12.45;;;;;;;;;;5029440;28;20053;-71
2022/06/27 02:33:38;;;;;;;22.67;11.80;;;;;;;;;;5029660;28;20095;-69
2022/06/27 02:36:05;;;;;;;50.28;13.70;;;;;;;;;;5029637;28;20037;-69
2022/06/27 02:38:30;;;;;;;23.70;11.90;;;;;;;;;;5030445;28;20037;-68
2022/06/27 02:40:59;;;;;;;21.42;12.32;;;;;;;;;;5030089;28;20041;-68
2022/06/27 02:43:26;;;;;;;34.78;13.77;;;;;;;;;;5012013;28;20038;-69
2022/06/27 02:45:51;;;;;;;24.58;10.63;;;;;;;;;;5029508;28;20421;-70
2022/06/27 02:48:18;;;;;;;21.38;10.90;;;;;;;;;;5011905;28;20045;-69
2022/06/27 02:50:44;;;;;;;17.02;10.70;;;;;;;;;;5029474;28;20053;-69
2022/06/27 02:53:10;;;;;;;30.88;11.55;;;;;;;;;;5011891;28;20045;-68
2022/06/27 02:55:38;;;;;;;26.55;14.50;;;;;;;;;;4996128;28;20402;-69
2022/06/27 02:58:34;;;;;;;27.42;14.25;;;;;;;;;;5029207;28;20051;-68
2022/06/27 03:01:01;;;;;;;27.58;14.02;;;;;;;;;;5020485;28;20038;-69
2022/06/27 03:03:27;;;;;;;24.80;13.32;;;;;;;;;;4995457;28;20049;-68
2022/06/27 03:06:03;;;;;;;32.42;14.20;;;;;;;;;;5011669;28;20051;-69
2022/06/27 03:08:39;;;;;;;26.42;14.00;;;;;;;;;;5028256;28;20455;-69
2022/06/27 03:11:06;;;;;;;33.60;14.15;;;;;;;;;;4995370;28;20052;-69
2022/06/27 03:13:32;;;;;;;27.88;14.80;;;;;;;;;;5028447;28;20445;-69
2022/06/27 03:15:59;;;;;;;32.00;14.05;;;;;;;;;;5011856;28;20461;-69
2022/06/27 03:18:25;;;;;;;25.00;13.10;;;;;;;;;;5027969;28;20077;-69
2022/06/27 03:21:11;;;;;;;26.27;13.15;;;;;;;;;;5000776;28;20049;-69
2022/06/27 03:23:38;;;;;;;26.60;13.00;;;;;;;;;;5030198;28;20111;-68
2022/06/27 03:26:04;;;;;;;30.77;13.95;;;;;;;;;;5015142;28;20045;-69
2022/06/27 03:28:33;;;;;;;24.80;13.07;;;;;;;;;;5031672;28;20124;-69
2022/06/27 03:31:01;;;;;;;22.92;11.50;;;;;;;;;;5015113;28;20049;-70
2022/06/27 03:33:30;;;;;;;24.07;12.17;;;;;;;;;;5031777;28;20036;-68
2022/06/27 03:36:03;;;;;;;24.70;12.40;;;;;;;;;;5014794;28;20048;-71
2022/06/27 03:38:31;;;;;;;22.55;12.80;;;;;;;;;;5031594;28;20068;-69
2022/06/27 03:40:57;;;;;;;24.10;13.27;;;;;;;;;;5015130;28;20129;-70
2022/06/27 03:43:23;;;;;;;21.60;12.35;;;;;;;;;;5014962;28;20084;-71
2022/06/27 03:45:49;;;;;;;22.25;12.48;;;;;;;;;;5015081;28;20059;-68
2022/06/27 03:51:23;;;;;;;24.70;13.40;;;;;;;;;;5014850;28;20058;-70
2022/06/27 03:53:49;;;;;;;21.38;12.80;;;;;;;;;;5014963;28;20047;-70
2022/06/27 03:56:15;;;;;;;25.35;13.00;;;;;;;;;;5032540;28;20120;-68
2022/06/27 03:58:41;;;;;;;29.42;13.10;;;;;;;;;;5015088;28;20625;-70
2022/06/27 04:01:07;;;;;;;20.38;13.18;;;;;;;;;;5014798;28;20426;-71
2022/06/27 04:03:33;;;;;;;19.95;13.82;;;;;;;;;;5014789;28;20048;-68
2022/06/27 04:06:05;;;;;;;19.80;13.98;;;;;;;;;;5014596;28;20037;-70
2022/06/27 04:08:31;;;;;;;18.70;13.02;;;;;;;;;;5031099;28;20179;-69
2022/06/27 04:10:57;;;;;;;21.42;13.27;;;;;;;;;;5014786;28;20041;-70
2022/06/27 04:13:29;;;;;;;23.55;12.75;;;;;;;;;;5032334;28;20044;-69
2022/06/27 04:16:07;;;;;;;20.27;12.13;;;;;;;;;;5032026;28;20049;-70
2022/06/27 04:18:54;;;;;;;24.42;12.30;;;;;;;;;;5032129;28;20129;-69
2022/06/27 04:21:40;;;;;;;23.55;12.10;;;;;;;;;;5031635;28;20050;-69
2022/06/27 04:24:20;;;;;;;16.33;12.50;;;;;;;;;;5030785;28;20042;-69
2022/06/27 04:26:51;;;;;;;24.30;11.77;;;;;;;;;;5014306;28;20573;-70
2022/06/27 04:29:17;;;;;;;14.98;12.10;;;;;;;;;;5031830;28;20141;-69
2022/06/27 04:31:44;;;;;;;20.25;11.50;;;;;;;;;;5014092;28;20513;-70
2022/06/27 04:34:12;;;;;;;26.23;11.50;;;;;;;;;;5030551;28;20095;-70
2022/06/27 04:36:45;;;;;;;16.10;10.50;;;;;;;;;;5031243;28;20045;-70
2022/06/27 04:39:15;;;;;;;18.88;10.57;;;;;;;;;;5013916;28;20033;-70
2022/06/27 04:42:02;;;;;;;14.82;10.05;;;;;;;;;;5030564;28;20042;-70
2022/06/27 04:44:28;;;;;;;16.52;10.10;;;;;;;;;;5013973;28;20129;-70
2022/06/27 04:46:54;;;;;;;14.95;9.32;;;;;;;;;;5030249;28;20050;-71
2022/06/27 04:49:20;;;;;;;13.65;9.60;;;;;;;;;;5031359;28;20057;-69
2022/06/27 04:51:49;;;;;;;10.02;9.10;;;;;;;;;;5013666;28;20053;-70
2022/06/27 04:54:16;;;;;;;12.73;8.93;;;;;;;;;;5031377;28;20076;-71
2022/06/27 04:56:42;;;;;;;11.38;8.93;;;;;;;;;;5031223;28;20048;-70
2022/06/27 04:59:09;;;;;;;11.18;8.75;;;;;;;;;;5031312;28;20042;-69
2022/06/27 05:01:36;;;;;;;16.48;8.90;;;;;;;;;;5013617;28;20041;-70
2022/06/27 05:04:05;;;;;;;10.15;7.97;;;;;;;;;;5013615;28;20064;-69
2022/06/27 05:06:35;;;;;;;9.30;7.55;;;;;;;;;;5013494;28;20128;-70
2022/06/27 05:09:04;;;;;;;9.32;6.95;;;;;;;;;;5013556;28;20127;-70
2022/06/27 05:11:30;;;;;;;7.32;6.70;;;;;;;;;;5029562;28;20119;-70
2022/06/27 05:13:56;;;;;;;8.20;6.72;;;;;;;;;;5013544;28;20433;-71
2022/06/27 05:16:51;;;;;;;6.88;6.35;;;;;;;;;;5020767;28;20139;-70
2022/06/27 05:19:19;;;;;;;10.10;6.60;;;;;;;;;;5013298;28;20092;-70
2022/06/27 05:21:46;;;;;;;11.18;7.40;;;;;;;;;;5013181;28;20037;-70
2022/06/27 05:24:15;;;;;;;7.10;6.40;;;;;;;;;;5012972;28;20056;-69
2022/06/27 05:26:40;;;;;;;6.88;6.30;;;;;;;;;;5029436;28;20127;-69
2022/06/27 05:29:06;;;;;;;10.25;6.47;;;;;;;;;;5013066;28;20541;-70
2022/06/27 05:31:33;;;;;;;7.25;6.55;;;;;;;;;;5029153;28;20045;-70
2022/06/27 05:33:59;;;;;;;8.93;6.45;;;;;;;;;;5013208;28;20063;-71
2022/06/27 05:36:25;;;;;;;6.93;6.30;;;;;;;;;;5029191;28;20045;-70
2022/06/27 05:38:51;;;;;;;7.18;6.47;;;;;;;;;;5013074;28;20049;-70
2022/06/27 05:41:17;;;;;;;7.13;6.60;;;;;;;;;;5012709;28;20406;-70
2022/06/27 05:43:43;;;;;;;6.90;6.30;;;;;;;;;;5012991;28;20108;-70
2022/06/27 05:46:09;;;;;;;7.13;6.43;;;;;;;;;;5029252;28;20037;-71
2022/06/27 23:16:59;;;;;;;9.63;8.75;;;;;;;;;;5071042;28;20075;-69
2022/06/27 23:19:25;;;;;;;13.93;9.00;;;;;;;;;;5049017;28;20556;-70
2022/06/27 23:21:50;;;;;;;10.65;8.70;;;;;;;;;;5049510;28;20116;-69
2022/06/27 23:24:16;;;;;;;9.57;8.60;;;;;;;;;;5048879;28;20045;-69
2022/06/27 23:26:42;;;;;;;14.07;9.45;;;;;;;;;;5049241;28;20041;-70
2022/06/27 23:29:08;;;;;;;10.13;8.98;;;;;;;;;;5048948;28;20049;-70
2022/06/27 23:31:34;;;;;;;11.30;8.98;;;;;;;;;;5048678;28;20128;-68
2022/06/27 23:34:00;;;;;;;17.35;11.18;;;;;;;;;;5049050;28;20075;-68
2022/06/27 23:36:26;;;;;;;15.30;9.85;;;;;;;;;;5030990;28;20410;-69
2022/06/27 23:38:52;;;;;;;17.38;10.85;;;;;;;;;;5031439;28;20043;-68
2022/06/27 23:41:17;;;;;;;20.80;10.50;;;;;;;;;;5052068;28;20045;-69
2022/06/27 23:43:44;;;;;;;12.77;9.75;;;;;;;;;;5052871;28;20079;-68
2022/06/27 23:46:11;;;;;;;21.75;9.60;;;;;;;;;;5035500;28;20044;-69
2022/06/27 23:48:37;;;;;;;17.88;9.80;;;;;;;;;;5053800;28;20140;-70
2022/06/27 23:51:03;;;;;;;14.63;9.85;;;;;;;;;;5053243;28;20425;-70
2022/06/27 23:53:29;;;;;;;22.00;10.25;;;;;;;;;;5052832;28;20049;-70
2022/06/27 23:55:54;;;;;;;24.20;9.90;;;;;;;;;;5052931;28;20132;-69
2022/06/27 23:58:20;;;;;;;17.58;10.82;;;;;;;;;;5034526;28;20127;-70
